createdAt,value
2022-11-14T00:00:59.224Z,2.60
2022-11-14T00:03:25.709Z,2.50
2022-11-14T00:05:52.089Z,2.95
2022-11-14T00:08:25.076Z,2.92
2022-11-14T00:10:52.039Z,2.78
2022-11-14T00:13:19.910Z,3.10
2022-11-14T00:15:50.262Z,4.22
2022-11-14T00:18:17.496Z,4.03
2022-11-14T00:20:43.955Z,3.88
2022-11-14T00:23:10.354Z,3.58
2022-11-14T00:25:36.923Z,3.60
2022-11-14T00:28:03.306Z,3.13
2022-11-14T00:30:29.859Z,2.97
2022-11-14T00:32:56.233Z,2.88
2022-11-14T00:35:23.013Z,3.35
2022-11-14T00:37:50.025Z,3.17
2022-11-14T00:40:16.664Z,2.90
2022-11-14T00:42:43.192Z,3.13
2022-11-14T00:45:10.460Z,2.92
2022-11-14T00:47:37.169Z,3.03
2022-11-14T00:50:04.690Z,3.38
2022-11-14T00:52:31.076Z,3.30
2022-11-14T00:54:57.641Z,3.42
2022-11-14T00:57:24.178Z,3.70
2022-11-14T00:59:50.715Z,3.30
2022-11-14T01:02:17.078Z,2.97
2022-11-14T01:04:43.570Z,3.30
2022-11-14T01:07:09.997Z,3.40
2022-11-14T01:09:36.619Z,3.13
2022-11-14T01:12:03.152Z,3.17
2022-11-14T01:14:29.559Z,3.38
2022-11-14T01:16:56.346Z,4.72
2022-11-14T01:19:22.734Z,4.18
2022-11-14T01:21:49.410Z,3.47
2022-11-14T01:24:15.784Z,3.38
2022-11-14T01:26:42.236Z,3.55
2022-11-14T01:29:08.636Z,3.95
2022-11-14T01:31:35.175Z,3.75
2022-11-14T01:34:01.594Z,3.92
2022-11-14T01:36:28.198Z,4.07
2022-11-14T01:38:55.014Z,3.65
2022-11-14T01:41:22.873Z,3.78
2022-11-14T01:43:49.804Z,3.65
2022-11-14T01:46:19.283Z,3.80
2022-11-14T01:48:51.578Z,4.13
2022-11-14T01:51:27.070Z,4.25
2022-11-14T01:53:56.379Z,3.78
2022-11-14T01:56:32.190Z,3.60
2022-11-14T01:59:04.701Z,4.05
2022-11-14T02:01:34.116Z,4.07
2022-11-14T02:04:05.489Z,3.75
2022-11-14T02:06:33.259Z,3.88
2022-11-14T02:09:05.002Z,4.15
2022-11-14T02:11:35.095Z,4.35
2022-11-14T02:14:01.937Z,4.07
2022-11-14T02:16:28.996Z,3.78
2022-11-14T02:18:55.621Z,3.95
2022-11-14T02:21:21.996Z,3.90
2022-11-14T02:23:48.617Z,4.25
2022-11-14T02:26:19.876Z,4.20
2022-11-14T02:28:47.343Z,4.28
2022-11-14T02:31:14.634Z,3.92
2022-11-14T02:33:42.070Z,3.90
2022-11-14T02:36:09.396Z,4.38
2022-11-14T02:38:36.468Z,4.57
2022-11-14T02:41:03.313Z,4.15
2022-11-14T02:43:29.751Z,4.30
2022-11-14T02:45:57.473Z,4.75
2022-11-14T02:48:25.655Z,4.15
2022-11-14T02:50:52.071Z,4.20
2022-11-14T02:53:18.604Z,3.95
2022-11-14T02:55:44.986Z,4.38
2022-11-14T02:58:11.465Z,4.63
2022-11-14T03:00:53.328Z,4.05
2022-11-14T03:03:24.299Z,4.10
2022-11-14T03:05:53.311Z,4.55
2022-11-14T03:08:19.982Z,4.18
2022-11-14T03:10:46.387Z,4.32
2022-11-14T03:13:12.786Z,4.47
2022-11-14T03:15:39.400Z,4.00
2022-11-14T03:18:05.895Z,3.90
2022-11-14T03:20:32.318Z,4.18
2022-11-14T03:22:58.742Z,4.10
2022-11-14T03:25:25.154Z,4.22
2022-11-14T03:27:51.781Z,4.10
2022-11-14T03:30:18.313Z,4.72
2022-11-14T03:32:44.905Z,4.22
2022-11-14T03:35:11.674Z,3.78
2022-11-14T03:37:38.584Z,4.10
2022-11-14T03:40:05.792Z,3.75
2022-11-14T03:42:36.189Z,4.10
2022-11-14T03:45:02.661Z,3.95
2022-11-14T03:47:29.438Z,3.95
2022-11-14T03:49:55.878Z,4.15
2022-11-14T03:52:22.400Z,3.60
2022-11-14T03:54:48.927Z,4.00
2022-11-14T03:57:15.447Z,4.32
2022-11-14T03:59:41.837Z,4.47
2022-11-14T04:02:08.925Z,4.85
2022-11-14T04:04:35.756Z,5.40
2022-11-14T04:07:02.420Z,5.43
2022-11-14T04:09:29.486Z,5.20
2022-11-14T04:11:56.043Z,5.75
2022-11-14T04:14:22.716Z,5.45
2022-11-14T04:16:49.095Z,5.65
2022-11-14T04:19:15.628Z,6.15
2022-11-14T04:21:41.974Z,5.65
2022-11-14T04:24:11.169Z,6.20
2022-11-14T04:26:37.902Z,5.60
2022-11-14T04:29:06.902Z,5.53
2022-11-14T04:31:33.338Z,5.18
2022-11-14T04:33:59.934Z,5.32
2022-11-14T04:36:26.319Z,5.60
2022-11-14T04:38:52.786Z,5.88
2022-11-14T04:41:19.165Z,5.60
2022-11-14T04:43:50.664Z,5.72
2022-11-14T04:46:17.409Z,6.05
2022-11-14T04:48:45.055Z,6.20
2022-11-14T04:51:11.456Z,6.10
2022-11-14T04:53:38.035Z,5.50
2022-11-14T04:56:04.759Z,5.07
2022-11-14T04:58:31.620Z,5.57
2022-11-14T05:00:58.450Z,5.72
2022-11-14T05:03:25.444Z,5.20
2022-11-14T05:05:51.942Z,4.72
2022-11-14T05:08:18.520Z,5.28
2022-11-14T05:10:46.134Z,4.85
2022-11-14T05:13:12.882Z,5.18
2022-11-14T05:15:39.493Z,5.25
2022-11-14T05:18:05.897Z,5.47
2022-11-14T05:20:32.520Z,5.10
2022-11-14T05:22:59.172Z,5.60
2022-11-14T05:25:25.718Z,5.93
2022-11-14T05:27:52.132Z,5.68
2022-11-14T05:30:18.851Z,6.15
2022-11-14T05:32:45.231Z,5.60
2022-11-14T05:35:11.741Z,4.68
2022-11-14T05:37:38.309Z,5.22
2022-11-14T05:40:06.650Z,5.40
2022-11-14T05:42:33.147Z,6.03
2022-11-14T05:44:59.916Z,6.38
2022-11-14T05:47:26.300Z,6.40
2022-11-14T05:49:52.877Z,5.28
2022-11-14T05:52:19.289Z,6.50
2022-11-14T05:54:45.766Z,5.60
2022-11-14T05:57:12.160Z,5.57
2022-11-14T05:59:38.747Z,5.57
2022-11-14T06:02:05.643Z,6.93
2022-11-14T06:04:32.095Z,7.47
2022-11-14T06:06:58.727Z,7.28
2022-11-14T06:09:25.154Z,7.22
2022-11-14T06:11:51.609Z,6.50
2022-11-14T06:14:18.103Z,7.45
2022-11-14T06:16:44.480Z,7.80
2022-11-14T06:19:10.924Z,7.22
2022-11-14T06:21:37.332Z,7.75
2022-11-14T06:24:04.189Z,7.53
2022-11-14T06:26:31.649Z,7.90
2022-11-14T06:28:59.924Z,7.50
2022-11-14T06:31:26.926Z,8.02
2022-11-14T06:33:53.888Z,9.13
2022-11-14T06:36:20.509Z,9.18
2022-11-14T06:38:47.107Z,8.30
2022-11-14T06:41:13.586Z,8.90
2022-11-14T06:43:45.678Z,9.02
2022-11-14T06:46:14.975Z,9.50
2022-11-14T06:48:43.075Z,9.48
2022-11-14T06:51:11.656Z,9.98
2022-11-14T06:53:38.112Z,9.75
2022-11-14T06:56:08.770Z,9.60
2022-11-14T06:58:38.978Z,11.63
2022-11-14T07:01:08.264Z,10.70
2022-11-14T07:03:34.894Z,11.48
2022-11-14T07:06:02.292Z,11.38
2022-11-14T07:08:29.513Z,10.88
2022-11-14T07:11:11.391Z,11.93
2022-11-14T07:13:38.573Z,11.55
2022-11-14T07:16:05.675Z,11.93
2022-11-14T07:18:33.665Z,11.55
2022-11-14T07:21:02.829Z,11.50
2022-11-14T07:23:32.038Z,12.93
2022-11-14T07:26:09.192Z,11.50
2022-11-14T07:28:37.780Z,12.35
2022-11-14T07:31:07.786Z,13.80
2022-11-14T07:33:34.633Z,12.70
2022-11-14T07:36:01.757Z,13.30
2022-11-14T07:38:28.569Z,13.73
2022-11-14T07:41:03.741Z,14.90
2022-11-14T07:43:30.350Z,13.00
2022-11-14T07:46:00.974Z,12.82
2022-11-14T07:48:29.266Z,13.35
2022-11-14T07:51:03.826Z,13.43
2022-11-14T07:53:31.101Z,12.77
2022-11-14T07:56:03.128Z,13.82
2022-11-14T07:58:30.200Z,13.13
2022-11-14T08:01:01.426Z,12.88
2022-11-14T08:03:28.672Z,12.77
2022-11-14T08:06:06.838Z,13.38
2022-11-14T08:08:33.677Z,14.15
2022-11-14T08:11:00.785Z,13.32
2022-11-14T08:13:33.227Z,14.43
2022-11-14T08:16:09.156Z,13.18
2022-11-14T08:18:38.691Z,12.65
2022-11-14T08:21:05.873Z,12.00
2022-11-14T08:23:32.410Z,12.00
2022-11-14T08:25:59.881Z,12.80
2022-11-14T08:28:26.287Z,12.77
2022-11-14T08:30:52.795Z,12.43
2022-11-14T08:33:19.203Z,12.63
2022-11-14T08:35:45.584Z,12.48
2022-11-14T08:38:12.099Z,13.15
2022-11-14T08:40:39.873Z,11.93
2022-11-14T08:43:06.394Z,12.13
2022-11-14T08:45:32.865Z,12.68
2022-11-14T08:47:59.243Z,13.38
2022-11-14T08:50:25.674Z,13.77
2022-11-14T08:52:52.463Z,13.70
2022-11-14T08:55:19.783Z,12.55
2022-11-14T08:57:49.691Z,13.10
2022-11-14T09:00:17.341Z,13.07
2022-11-14T09:02:43.778Z,13.55
2022-11-14T09:05:11.018Z,12.73
2022-11-14T09:07:37.599Z,13.95
2022-11-14T09:10:05.124Z,14.40
2022-11-14T09:12:31.751Z,13.48
2022-11-14T09:14:58.262Z,13.65
2022-11-14T09:17:24.844Z,12.52
2022-11-14T09:19:51.278Z,13.82
2022-11-14T09:22:17.750Z,12.57
2022-11-14T09:24:47.337Z,12.32
2022-11-14T09:27:14.091Z,12.35
2022-11-14T09:29:40.941Z,13.45
2022-11-14T09:32:07.540Z,13.80
2022-11-14T09:34:33.929Z,13.73
2022-11-14T09:37:00.279Z,12.95
2022-11-14T09:39:26.735Z,12.40
2022-11-14T09:42:15.825Z,12.25
2022-11-14T09:44:49.522Z,12.80
2022-11-14T09:47:21.589Z,12.07
2022-11-14T09:49:50.683Z,12.35
2022-11-14T09:52:39.969Z,12.80
2022-11-14T09:55:36.852Z,12.02
2022-11-14T09:58:04.363Z,12.27
2022-11-14T10:01:20.509Z,12.63
2022-11-14T10:03:59.361Z,12.25
2022-11-14T10:06:58.381Z,11.63
2022-11-14T10:09:46.274Z,11.85
2022-11-14T10:12:43.570Z,11.88
2022-11-14T10:15:39.399Z,13.10
2022-11-14T10:18:36.787Z,12.40
2022-11-14T10:21:26.762Z,12.10
2022-11-14T10:24:09.729Z,11.82
2022-11-14T10:26:55.008Z,12.05
2022-11-14T10:29:24.216Z,13.07
2022-11-14T10:32:09.458Z,12.00
2022-11-14T10:34:47.995Z,13.18
2022-11-14T10:37:23.473Z,14.63
2022-11-14T10:40:08.719Z,11.93
2022-11-14T10:42:38.653Z,14.60
2022-11-14T10:45:28.631Z,13.43
2022-11-14T10:48:00.062Z,13.57
2022-11-14T10:50:56.035Z,14.43
2022-11-14T10:56:04.038Z,12.38
2022-11-14T10:58:42.015Z,14.30
2022-11-14T11:01:32.985Z,15.07
2022-11-14T11:04:12.064Z,12.93
2022-11-14T11:06:38.728Z,13.73
2022-11-14T11:09:31.677Z,13.40
2022-11-14T11:12:01.659Z,13.75
2022-11-14T11:14:29.575Z,12.70
2022-11-14T11:17:11.472Z,12.85
2022-11-14T11:19:39.471Z,14.30
2022-11-14T11:22:23.193Z,13.75
2022-11-14T11:24:49.601Z,13.38
2022-11-14T11:27:19.033Z,13.20
2022-11-14T11:29:46.590Z,13.07
2022-11-14T11:32:26.078Z,14.40
2022-11-14T11:34:52.627Z,14.15
2022-11-14T11:37:24.315Z,13.80
2022-11-14T11:40:01.055Z,14.30
2022-11-14T11:43:31.839Z,13.88
2022-11-14T11:45:33.607Z,13.43
2022-11-14T11:48:14.117Z,13.90
2022-11-14T11:50:41.419Z,12.90
2022-11-14T11:53:31.848Z,14.38
2022-11-14T11:56:10.202Z,13.10
2022-11-14T11:58:52.052Z,14.27
2022-11-14T12:01:19.784Z,13.43
2022-11-14T12:03:55.450Z,14.43
2022-11-14T12:06:27.502Z,13.98
2022-11-14T12:09:03.425Z,14.23
2022-11-14T12:11:34.117Z,13.63
2022-11-14T12:14:06.564Z,14.32
2022-11-14T12:16:51.735Z,14.93
2022-11-14T12:19:24.137Z,14.27
2022-11-14T12:22:05.759Z,13.85
2022-11-14T12:25:00.141Z,13.55
2022-11-14T12:27:49.958Z,13.95
2022-11-14T12:30:21.892Z,14.02
2022-11-14T12:32:54.852Z,13.45
2022-11-14T12:35:29.698Z,14.90
2022-11-14T12:37:58.432Z,13.80
2022-11-14T12:40:37.571Z,13.77
2022-11-14T12:43:24.518Z,14.80
2022-11-14T12:45:50.830Z,15.38
2022-11-14T12:48:31.382Z,15.27
2022-11-14T12:50:59.728Z,14.40
2022-11-14T12:53:37.820Z,16.25
2022-11-14T12:56:30.715Z,14.73
2022-11-14T12:59:12.501Z,13.85
2022-11-14T13:01:42.434Z,13.95
2022-11-14T13:04:42.795Z,15.00
2022-11-14T13:07:32.938Z,13.77
2022-11-14T13:10:03.812Z,14.02
2022-11-14T13:12:51.694Z,13.82
2022-11-14T13:15:54.619Z,14.00
2022-11-14T13:18:45.529Z,14.15
2022-11-14T13:21:45.392Z,13.90
2022-11-14T13:24:17.777Z,16.77
2022-11-14T13:26:48.656Z,14.07
2022-11-14T13:29:40.045Z,13.13
2022-11-14T13:32:11.733Z,13.20
2022-11-14T13:34:51.951Z,13.27
2022-11-14T13:37:56.980Z,14.43
2022-11-14T13:40:51.554Z,12.70
2022-11-14T13:43:30.226Z,12.32
2022-11-14T13:46:13.577Z,12.75
2022-11-14T13:49:01.687Z,11.70
2022-11-14T13:51:43.017Z,12.20
2022-11-14T13:54:17.568Z,12.27
2022-11-14T13:57:03.035Z,12.55
2022-11-14T13:59:48.004Z,11.60
2022-11-14T14:02:40.295Z,12.82
2022-11-14T14:05:31.188Z,13.38
2022-11-14T14:10:56.853Z,13.13
2022-11-14T14:13:51.112Z,12.05
2022-11-14T14:16:39.299Z,12.68
2022-11-14T14:19:25.530Z,12.05
2022-11-14T14:22:10.025Z,12.57
2022-11-14T14:24:48.426Z,12.27
2022-11-14T14:27:28.062Z,11.35
2022-11-14T14:30:12.813Z,12.13
2022-11-14T14:32:39.326Z,12.23
2022-11-14T14:35:27.236Z,11.75
2022-11-14T14:37:55.656Z,11.15
2022-11-14T14:40:26.250Z,12.07
2022-11-14T14:42:53.674Z,10.82
2022-11-14T14:45:22.540Z,11.18
2022-11-14T14:47:51.651Z,11.13
2022-11-14T14:50:24.105Z,11.68
2022-11-14T14:52:58.809Z,11.93
2022-11-14T14:55:32.507Z,11.40
2022-11-14T14:58:27.596Z,11.48
2022-11-14T15:01:07.159Z,12.13
2022-11-14T15:03:38.169Z,10.02
2022-11-14T15:06:29.668Z,11.00
2022-11-14T15:08:59.615Z,10.73
2022-11-14T15:11:31.389Z,11.40
2022-11-14T15:14:00.442Z,10.55
2022-11-14T15:16:29.153Z,10.70
2022-11-14T15:18:57.209Z,11.40
2022-11-14T15:21:29.412Z,11.02
2022-11-14T15:24:23.460Z,11.23
2022-11-14T15:26:51.187Z,11.10
2022-11-14T15:29:21.080Z,10.05
2022-11-14T15:31:57.662Z,11.48
2022-11-14T15:34:30.023Z,10.93
2022-11-14T15:37:16.090Z,10.18
2022-11-14T15:39:43.611Z,11.43
2022-11-14T15:42:26.337Z,12.05
2022-11-14T15:44:52.697Z,11.23
2022-11-14T15:47:20.979Z,11.15
2022-11-14T15:50:06.645Z,12.60
2022-11-14T15:53:01.185Z,12.27
2022-11-14T15:55:28.181Z,10.45
2022-11-14T15:58:20.995Z,10.63
2022-11-14T16:00:50.165Z,11.80
2022-11-14T16:03:19.452Z,11.23
2022-11-14T16:05:48.559Z,12.40
2022-11-14T16:08:14.913Z,11.45
2022-11-14T16:10:41.246Z,11.98
2022-11-14T16:13:07.643Z,13.35
2022-11-14T16:15:34.046Z,11.80
2022-11-14T16:18:00.377Z,12.13
2022-11-14T16:20:29.602Z,11.77
2022-11-14T16:22:56.624Z,16.08
2022-11-14T16:25:28.620Z,12.18
2022-11-14T16:27:55.314Z,11.63
2022-11-14T16:30:23.836Z,11.30
2022-11-14T16:32:51.762Z,12.95
2022-11-14T16:35:23.657Z,11.63
2022-11-14T16:37:50.934Z,11.80
2022-11-14T16:40:27.691Z,12.32
2022-11-14T16:42:56.279Z,11.70
2022-11-14T16:45:25.085Z,13.98
2022-11-14T16:47:51.574Z,11.80
2022-11-14T16:50:19.122Z,12.52
2022-11-14T16:52:45.604Z,10.40
2022-11-14T16:55:12.522Z,10.85
2022-11-14T16:57:40.182Z,11.25
2022-11-14T17:00:09.453Z,11.50
2022-11-14T17:02:35.924Z,12.45
2022-11-14T17:05:02.393Z,11.35
2022-11-14T17:07:32.655Z,11.57
2022-11-14T17:10:02.907Z,13.98
2022-11-14T17:12:29.326Z,13.30
2022-11-14T17:14:55.790Z,13.77
2022-11-14T17:17:22.174Z,12.25
2022-11-14T17:19:48.832Z,11.93
2022-11-14T17:22:17.318Z,12.05
2022-11-14T17:24:44.305Z,11.57
2022-11-14T17:27:12.792Z,12.00
2022-11-14T17:29:39.365Z,12.55
2022-11-14T17:32:05.736Z,79.85
2022-11-14T17:34:32.506Z,14.68
2022-11-14T17:36:58.878Z,11.45
2022-11-14T17:39:26.099Z,9.95
2022-11-14T17:41:52.513Z,8.27
2022-11-14T17:44:18.865Z,9.90
2022-11-14T17:46:46.827Z,9.13
2022-11-14T17:49:13.210Z,8.63
2022-11-14T17:51:39.563Z,8.85
2022-11-14T17:54:05.990Z,8.90
2022-11-14T17:56:32.320Z,7.78
2022-11-14T17:58:58.827Z,7.78
2022-11-14T18:01:25.352Z,9.20
2022-11-14T18:03:51.806Z,8.10
2022-11-14T18:06:20.563Z,8.45
2022-11-14T18:08:47.726Z,8.93
2022-11-14T18:11:16.922Z,7.65
2022-11-14T18:13:43.657Z,7.78
2022-11-14T18:16:13.578Z,8.02
2022-11-14T18:18:40.912Z,8.13
2022-11-14T18:21:25.725Z,7.13
2022-11-14T18:23:54.243Z,6.68
2022-11-14T18:26:26.895Z,7.95
2022-11-14T18:29:02.018Z,8.20
2022-11-14T18:33:56.474Z,6.90
2022-11-14T18:36:23.662Z,8.05
2022-11-14T18:38:50.400Z,7.57
2022-11-14T18:41:19.495Z,7.35
2022-11-14T18:43:46.012Z,8.00
2022-11-14T18:48:42.432Z,7.40
2022-11-14T18:51:17.434Z,7.55
2022-11-14T18:53:44.284Z,8.48
2022-11-14T18:56:14.342Z,14.52
2022-11-14T18:58:42.784Z,9.00
2022-11-14T19:01:13.734Z,7.93
2022-11-14T19:03:40.646Z,8.20
2022-11-14T19:06:09.187Z,8.35
2022-11-14T19:08:35.774Z,7.03
2022-11-14T19:11:07.464Z,7.78
2022-11-14T19:13:34.465Z,7.47
2022-11-14T19:16:05.309Z,6.72
2022-11-14T19:18:32.355Z,7.43
2022-11-14T19:21:00.787Z,7.38
2022-11-14T19:23:28.335Z,6.85
2022-11-14T19:26:00.603Z,6.75
2022-11-14T19:28:29.462Z,6.78
2022-11-14T19:31:03.425Z,7.22
2022-11-14T19:33:31.084Z,7.20
2022-11-14T19:35:58.506Z,7.43
2022-11-14T19:38:25.131Z,7.18
2022-11-14T19:40:51.515Z,7.60
2022-11-14T19:43:18.426Z,7.78
2022-11-14T19:45:44.882Z,8.77
2022-11-14T19:48:11.571Z,7.05
2022-11-14T19:50:38.199Z,7.05
2022-11-14T19:53:05.056Z,8.07
2022-11-14T19:55:32.116Z,7.80
2022-11-14T19:57:59.192Z,8.40
2022-11-14T20:00:29.232Z,8.02
2022-11-14T20:02:55.651Z,8.43
2022-11-14T20:05:22.267Z,8.95
2022-11-14T20:07:48.705Z,8.10
2022-11-14T20:10:16.332Z,8.73
2022-11-14T20:12:42.785Z,9.82
2022-11-14T20:15:09.877Z,11.50
2022-11-14T20:17:36.286Z,13.57
2022-11-14T20:20:02.889Z,12.50
2022-11-14T20:22:29.282Z,11.48
2022-11-14T20:24:55.835Z,11.32
2022-11-14T20:27:22.236Z,9.77
2022-11-14T20:29:48.734Z,11.73
2022-11-14T20:32:15.984Z,14.52
2022-11-14T20:34:42.673Z,10.30
2022-11-14T20:37:11.649Z,10.80
2022-11-14T20:39:38.663Z,17.08
2022-11-14T20:42:05.168Z,11.55
2022-11-14T20:44:31.645Z,20.20
2022-11-14T20:46:58.246Z,15.75
2022-11-14T20:49:24.681Z,10.20
2022-11-14T20:51:51.311Z,11.13
2022-11-14T20:54:17.691Z,19.17
2022-11-14T20:56:45.316Z,12.90
2022-11-14T20:59:11.736Z,11.75
2022-11-14T21:01:43.419Z,10.75
2022-11-14T21:04:10.573Z,9.23
2022-11-14T21:06:37.142Z,11.05
2022-11-14T21:09:03.711Z,9.85
2022-11-14T21:11:31.200Z,10.93
2022-11-14T21:13:58.513Z,10.18
2022-11-14T21:16:39.433Z,14.88
2022-11-14T21:19:07.511Z,14.68
2022-11-14T21:21:35.735Z,16.15
2022-11-14T21:24:02.208Z,12.48
2022-11-14T21:26:31.632Z,13.73
2022-11-14T21:29:00.851Z,11.10
2022-11-14T21:31:34.865Z,11.75
2022-11-14T21:34:03.974Z,10.63
2022-11-14T21:36:44.233Z,10.73
2022-11-14T21:39:14.684Z,10.02
2022-11-14T21:41:42.629Z,9.02
2022-11-14T21:44:13.078Z,8.52
2022-11-14T21:46:40.340Z,9.20
2022-11-14T21:49:06.773Z,9.63
2022-11-14T21:51:33.340Z,8.23
2022-11-14T21:53:59.874Z,7.60
2022-11-14T21:56:28.976Z,7.75
2022-11-14T21:59:15.884Z,8.25
2022-11-14T22:02:04.293Z,7.95
2022-11-14T22:04:31.895Z,7.53
2022-11-14T22:06:59.861Z,7.82
2022-11-14T22:09:28.047Z,8.27
2022-11-14T22:11:56.193Z,7.85
2022-11-14T22:14:23.016Z,9.07
2022-11-14T22:16:49.657Z,9.82
2022-11-14T22:19:16.198Z,8.50
2022-11-14T22:21:42.790Z,8.85
2022-11-14T22:24:09.177Z,11.23
2022-11-14T22:26:39.690Z,8.52
2022-11-14T22:29:07.192Z,9.15
2022-11-14T22:31:34.145Z,10.80
2022-11-14T22:34:00.630Z,9.65
2022-11-14T22:36:27.975Z,11.50
2022-11-14T22:38:55.584Z,9.43
2022-11-14T22:41:30.481Z,10.45
2022-11-14T22:43:59.189Z,9.98
2022-11-14T22:46:27.060Z,9.15
2022-11-14T22:48:53.547Z,9.85
2022-11-14T22:51:24.170Z,8.50
2022-11-14T22:53:52.620Z,8.45
2022-11-14T22:56:21.301Z,8.85
2022-11-14T22:58:48.537Z,8.73
2022-11-14T23:01:20.443Z,9.25
2022-11-14T23:03:50.792Z,9.13
2022-11-14T23:06:18.846Z,8.75
2022-11-14T23:08:45.615Z,8.50
2022-11-14T23:11:19.197Z,9.00
2022-11-14T23:13:47.892Z,9.32
2022-11-14T23:16:20.314Z,10.15
2022-11-14T23:18:47.649Z,10.90
2022-11-14T23:21:20.003Z,14.15
2022-11-14T23:23:46.768Z,11.77
2022-11-14T23:26:15.835Z,12.27
2022-11-14T23:28:42.860Z,12.45
2022-11-14T23:31:10.518Z,9.77
2022-11-14T23:33:36.983Z,9.70
2022-11-14T23:36:04.153Z,9.45
2022-11-14T23:38:30.980Z,9.38
2022-11-14T23:40:59.472Z,9.77
2022-11-14T23:43:26.631Z,9.68
2022-11-14T23:45:53.353Z,10.13
2022-11-14T23:48:21.064Z,9.30
2022-11-14T23:50:55.650Z,9.57
2022-11-14T23:53:22.503Z,9.52
2022-11-14T23:56:00.175Z,9.48
2022-11-14T23:58:27.971Z,9.10
